Commerce, California
Current Conditions -  °F | °C
As of 4:47 PM on Sunday 23 Nov 2014 (Local Time) from KCQT Reporting Station
Clear Clear  
Wind Chill: 74°   Ceiling: Unl
Heat Index: 74°   Visibility: 10mi
Dew Point:   Wind: 3mph
Humidity: 8%   Direction: NA
Pressure: 30.07"   Gusts: NA
Location:  34.0185°N, 118.199°W
Report Text: KCQT 240047Z AUTO VRB03KT 10SM CLR 23/M13 A3007 RMK AO2 SLP181 T02331128
Loading
Personal Weather Stations






























Interactive Weather Map New forecast layout! Learn more

10-Day Weather Forecast

Advertisements
Track Severe Weather on mobile